Latest METARs, TAFs and NOTAMs for ETSI


---------------------------------------------------------------------------
	(OBSERVATIONS)
ETSI 262320Z AUTO 24004KT 3900 // ////// 05/05 Q1011 ///=
ETSI 262220Z AUTO 20003KT 3400 // ////// 05/05 Q1011 ///=
ETSI 262120Z AUTO 21003KT 2300 // ////// 05/05 Q1010 ///=
---------------------------------------------------------------------------
	(FC)
TAF ETSI 262300Z NIL=
---------------------------------------------------------------------------
	(TERMINAL AREA FORECAST)
ETSI 262300Z NIL=
---------------------------------------------------------------------------
	(NOTAMS)


ETSI P1445/15 AD ETSI: LIMITED RADAR COVERAGE BELOW 5000FT MSL
    DETAILED INFORMATION BY INGO RADAR. 27 FEB 08:46 2015 UNTIL
    22 MAY 13:00 2015. CREATED: 27 FEB 09:00 2015

ETSI P1446/15 AD ETSI: NO SRA POSSIBLE. 27 FEB 08:47 2015 UNTIL
    22 MAY 12:00 2015. CREATED: 27 FEB 09:01 2015

ETSI P1447/15 AD ETSI: PAR RWY25R/07L OUT OF SERVICE. 27 FEB
    08:48 2015 UNTIL 22 MAY 12:00 2015. CREATED: 27 FEB 09:03
    2015

ETSI P1448/15 AD ETSI: PAR RWY25L/07R OUT OF SERVICE. 27 FEB
    08:49 2015 UNTIL 22 MAY 12:00 2015. CREATED: 27 FEB 09:04
    2015

ETSI P1454/15 AD ETSI: TACAN APCH RWY07R SUSPENDED. 27 FEB 09:11
    2015 UNTIL 22 MAY 12:00 2015. CREATED: 27 FEB 09:22 2015

---------------------------------------------------------------------------